Time;durP1;ratioP1;P1;durP2;ratioP2;P2;SDS_P1;SDS_P2;PMS_P1;PMS_P2;Temp;Humidity;BMP_temperature;BMP_pressure;BME280_temperature;BME280_humidity;BME280_pressure;Samples;Min_cycle;Max_cycle;Signal;HPM_P1;HPM_P2
2022/09/02 00:01:36;;;;;;;4.72;2.95;;;;;;;15.55;61.04;101666.50;5038114;28;20226;-88
2022/09/02 00:04:17;;;;;;;4.78;3.10;;;;;;;15.52;61.08;101666.53;5046846;28;20055;-87
2022/09/02 00:06:45;;;;;;;4.07;2.60;;;;;;;15.47;60.58;101667.59;5057856;28;20025;-87
2022/09/02 00:09:13;;;;;;;4.45;2.72;;;;;;;15.43;61.71;101672.03;5046664;28;20113;-87
2022/09/02 00:11:40;;;;;;;4.97;2.90;;;;;;;15.38;61.63;101668.72;5045414;28;20037;-87
2022/09/02 00:14:09;;;;;;;5.82;3.00;;;;;;;15.32;62.24;101669.78;5051179;28;20013;-87
2022/09/02 00:16:35;;;;;;;5.53;3.05;;;;;;;15.30;62.96;101668.09;5035547;28;20029;-87
2022/09/02 00:19:01;;;;;;;3.40;2.92;;;;;;;15.25;62.35;101667.38;5042225;28;20044;-85
2022/09/02 00:21:27;;;;;;;5.38;3.10;;;;;;;15.19;62.14;101660.59;5035180;28;20032;-84
2022/09/02 00:23:53;;;;;;;4.47;3.05;;;;;;;15.17;63.10;101664.13;5045896;28;20116;-84
2022/09/02 00:26:18;;;;;;;5.03;3.33;;;;;;;15.16;63.58;101665.03;5059841;28;20485;-85
2022/09/02 00:28:45;;;;;;;4.97;3.38;;;;;;;15.10;62.97;101660.84;5050074;28;20033;-84
2022/09/02 00:31:11;;;;;;;6.80;3.47;;;;;;;15.06;63.56;101656.63;5038324;28;20033;-84
2022/09/02 00:33:37;;;;;;;4.82;3.13;;;;;;;15.02;63.21;101655.00;5044963;28;20048;-84
2022/09/02 00:36:03;;;;;;;4.53;3.40;;;;;;;15.01;63.81;101648.91;5041429;28;20118;-84
2022/09/02 00:38:32;;;;;;;6.43;3.47;;;;;;;15.01;63.42;101653.31;5044873;28;20021;-85
2022/09/02 00:40:59;;;;;;;5.22;3.47;;;;;;;14.96;63.37;101653.41;5046107;28;20037;-85
2022/09/02 00:43:37;;;;;;;5.20;3.20;;;;;;;14.95;63.44;101650.84;5047296;28;20151;-85
2022/09/02 00:46:03;;;;;;;5.53;3.90;;;;;;;14.91;64.12;101636.19;5043869;28;20628;-84
2022/09/02 00:48:29;;;;;;;6.70;3.55;;;;;;;14.90;63.71;101640.53;5051552;28;20032;-85
2022/09/02 00:50:54;;;;;;;7.68;3.88;;;;;;;14.86;64.44;101644.16;5041049;28;20053;-84
2022/09/02 00:53:19;;;;;;;6.05;4.03;;;;;;;14.86;64.23;101641.53;5043827;28;20021;-85
2022/09/02 00:55:47;;;;;;;6.40;3.88;;;;;;;14.81;63.99;101646.03;5044884;28;20104;-84
2022/09/02 00:58:20;;;;;;;6.32;4.00;;;;;;;14.77;64.57;101641.78;5054279;28;20067;-84
2022/09/02 01:00:51;;;;;;;7.10;3.80;;;;;;;14.74;64.43;101633.22;5048758;28;20418;-84
2022/09/02 01:03:20;;;;;;;6.18;3.95;;;;;;;14.69;64.58;101630.72;5049068;28;20090;-85
2022/09/02 01:05:48;;;;;;;7.72;4.22;;;;;;;14.65;63.86;101631.72;5050749;28;20061;-84
2022/09/02 01:08:18;;;;;;;4.65;4.15;;;;;;;14.62;65.48;101637.84;5048041;28;20440;-85
2022/09/02 01:10:45;;;;;;;5.18;3.90;;;;;;;14.59;65.53;101630.13;5042719;28;20044;-84
2022/09/02 01:13:15;;;;;;;4.80;4.10;;;;;;;14.58;66.08;101632.78;5038257;28;20112;-84
2022/09/02 01:15:47;;;;;;;8.15;4.28;;;;;;;14.53;66.19;101619.00;5055655;28;20025;-85
2022/09/02 01:18:16;;;;;;;5.45;3.95;;;;;;;14.50;66.08;101632.97;5039566;28;20021;-84
2022/09/02 01:20:42;;;;;;;6.90;4.30;;;;;;;14.50;65.83;101634.72;5037618;28;20036;-84
2022/09/02 01:23:08;;;;;;;6.28;4.20;;;;;;;14.43;65.88;101634.03;5036337;28;20033;-84
2022/09/02 01:25:34;;;;;;;6.32;3.92;;;;;;;14.42;66.09;101636.69;5053881;28;20033;-84
2022/09/02 01:28:01;;;;;;;5.72;4.00;;;;;;;14.36;66.07;101632.47;5049873;28;20021;-84
2022/09/02 01:30:27;;;;;;;8.60;4.70;;;;;;;14.33;66.50;101627.31;5046345;28;20115;-84
2022/09/02 01:32:52;;;;;;;9.88;4.50;;;;;;;14.32;66.95;101632.59;5039869;28;20175;-84
2022/09/02 01:35:18;;;;;;;8.25;4.40;;;;;;;14.28;66.38;101626.59;5035922;28;20032;-84
2022/09/02 01:37:45;;;;;;;8.48;4.40;;;;;;;14.27;66.74;101619.66;5038143;28;20036;-85
2022/09/02 01:40:13;;;;;;;7.07;4.55;;;;;;;14.26;66.55;101624.94;5050205;28;20036;-85
2022/09/02 01:42:39;;;;;;;8.60;4.90;;;;;;;14.21;67.46;101623.28;5046385;28;20162;-84
2022/09/02 01:45:07;;;;;;;5.68;4.30;;;;;;;14.18;67.20;101622.53;5050842;28;20055;-84
2022/09/02 01:47:34;;;;;;;6.45;4.32;;;;;;;14.16;66.98;101617.34;5049423;28;20083;-85
2022/09/02 01:49:59;;;;;;;5.97;4.40;;;;;;;14.14;67.10;101623.47;5038115;28;20493;-84
2022/09/02 01:52:27;;;;;;;5.85;4.60;;;;;;;14.07;66.97;101616.72;5040713;28;20028;-84
2022/09/02 01:54:53;;;;;;;7.80;4.50;;;;;;;14.07;67.51;101614.09;5056102;28;20032;-84
2022/09/02 01:57:18;;;;;;;5.40;4.20;;;;;;;14.03;67.84;101610.72;5049204;28;20033;-84
2022/09/02 01:59:45;;;;;;;10.75;4.90;;;;;;;14.03;67.54;101612.47;5048497;28;20048;-87
2022/09/02 02:02:11;;;;;;;7.13;4.30;;;;;;;14.01;67.51;101611.66;5054052;28;20052;-87
2022/09/02 02:04:36;;;;;;;6.63;4.72;;;;;;;13.99;68.24;101606.47;5041102;28;20398;-87
2022/09/02 02:07:02;;;;;;;5.78;4.47;;;;;;;13.97;68.03;101613.50;5039683;28;20510;-87
2022/09/02 02:09:28;;;;;;;5.15;4.35;;;;;;;13.93;67.33;101611.84;5039868;28;20025;-87
2022/09/02 02:11:53;;;;;;;5.57;4.35;;;;;;;13.92;67.47;101614.53;5048144;28;20029;-87
2022/09/02 02:14:19;;;;;;;5.43;4.63;;;;;;;13.90;67.91;101616.31;5042504;28;20032;-87
2022/09/02 02:16:45;;;;;;;7.82;4.60;;;;;;;13.86;68.04;101612.91;5045766;28;20033;-87
2022/09/02 02:19:11;;;;;;;6.25;4.47;;;;;;;13.85;67.84;101613.81;5041521;28;20035;-87
2022/09/02 02:21:36;;;;;;;6.07;4.43;;;;;;;13.81;68.55;101607.81;5053259;28;20029;-87
2022/09/02 02:24:02;;;;;;;6.28;4.60;;;;;;;13.80;68.38;101615.66;5046345;28;20032;-86
2022/09/02 02:26:28;;;;;;;6.65;4.40;;;;;;;13.76;68.38;101614.88;5056393;28;20048;-87
2022/09/02 02:28:54;;;;;;;6.72;4.47;;;;;;;13.71;67.75;101605.47;5049299;28;20029;-87
2022/09/02 02:31:19;;;;;;;6.25;4.68;;;;;;;13.70;68.45;101606.38;5057451;28;20028;-87
2022/09/02 02:33:46;;;;;;;7.75;4.75;;;;;;;13.65;69.17;101600.38;5049187;28;20029;-87
2022/09/02 02:36:12;;;;;;;7.35;4.60;;;;;;;13.67;68.91;101607.28;5046809;28;20025;-87
2022/09/02 02:38:38;;;;;;;7.75;4.50;;;;;;;13.65;69.65;101603.84;5043828;28;20513;-87
2022/09/02 02:41:05;;;;;;;7.45;4.88;;;;;;;13.64;69.18;101601.31;5053659;28;20056;-86
2022/09/02 02:43:32;;;;;;;9.98;4.63;;;;;;;13.61;68.75;101601.38;5046674;28;20036;-87
2022/09/02 02:45:58;;;;;;;7.20;4.50;;;;;;;13.61;69.46;101601.38;5042254;28;20032;-87
2022/09/02 02:48:23;;;;;;;5.75;4.63;;;;;;;13.62;69.82;101606.56;5042293;28;20029;-87
2022/09/02 02:50:48;;;;;;;7.28;4.65;;;;;;;13.60;69.31;101594.44;5036146;28;20053;-87
2022/09/02 02:53:16;;;;;;;7.55;4.30;;;;;;;13.62;68.80;101609.16;5040727;28;20033;-87
2022/09/02 02:55:41;;;;;;;8.10;4.47;;;;;;;13.62;70.00;101598.72;5041945;28;20035;-87
2022/09/02 02:58:07;;;;;;;5.22;4.03;;;;;;;13.61;69.78;101602.22;5048104;28;20108;-86
2022/09/02 03:00:32;;;;;;;6.55;4.93;;;;;;;13.62;69.09;101595.28;5046623;28;20052;-84
2022/09/02 03:03:00;;;;;;;5.55;4.10;;;;;;;13.61;68.91;101597.03;5039942;28;20064;-84
2022/09/02 03:05:27;;;;;;;6.43;4.22;;;;;;;13.61;68.03;101596.16;5039086;28;20100;-84
2022/09/02 03:07:52;;;;;;;7.50;4.88;;;;;;;13.59;69.35;101592.72;5045298;28;20033;-85
2022/09/02 03:10:18;;;;;;;7.10;4.50;;;;;;;13.59;69.27;101595.34;5052401;28;20103;-84
2022/09/02 03:12:46;;;;;;;6.65;4.90;;;;;;;13.58;69.52;101596.25;5041943;28;20020;-84
2022/09/02 03:15:14;;;;;;;7.35;4.80;;;;;;;13.59;69.60;101595.34;5059986;28;20485;-84
2022/09/02 03:17:40;;;;;;;6.95;4.82;;;;;;;13.56;69.35;101591.06;5042289;28;20025;-84
2022/09/02 03:20:06;;;;;;;6.18;4.72;;;;;;;13.55;69.64;101591.09;5049900;28;20032;-84
2022/09/02 03:22:34;;;;;;;6.97;5.00;;;;;;;13.53;69.42;101592.88;5044327;28;20562;-84
2022/09/02 03:25:00;;;;;;;8.32;5.13;;;;;;;13.50;69.83;101586.00;5046424;28;20028;-84
2022/09/02 03:27:25;;;;;;;11.55;5.05;;;;;;;13.52;69.46;101583.34;5041792;28;20025;-84
2022/09/02 03:29:50;;;;;;;11.03;4.97;;;;;;;13.48;70.04;101587.78;5044658;28;20685;-84
2022/09/02 03:32:16;;;;;;;11.17;4.90;;;;;;;13.45;69.93;101588.69;5049754;28;20370;-84
2022/09/02 03:34:42;;;;;;;10.93;5.25;;;;;;;13.42;69.73;101586.19;5053242;28;20314;-84
2022/09/02 03:37:07;;;;;;;11.60;4.90;;;;;;;13.42;70.40;101585.34;5050479;28;20044;-84
2022/09/02 03:39:33;;;;;;;9.23;5.00;;;;;;;13.39;70.31;101583.66;5035880;28;20037;-84
2022/09/02 03:41:58;;;;;;;9.40;5.07;;;;;;;13.37;69.51;101576.78;5038121;28;20032;-84
2022/09/02 03:44:23;;;;;;;13.52;5.60;;;;;;;13.36;70.78;101578.53;5051779;28;20057;-84
2022/09/02 03:46:49;;;;;;;11.63;5.50;;;;;;;13.34;70.51;101572.47;5045791;28;20029;-84
2022/09/02 03:49:14;;;;;;;21.63;6.60;;;;;;;13.35;70.42;101573.34;5046082;28;20296;-84
2022/09/02 03:51:41;;;;;;;12.63;5.45;;;;;;;13.36;70.42;101581.13;5054087;28;20063;-84
2022/09/02 03:54:07;;;;;;;16.67;5.30;;;;;;;13.33;68.93;101575.97;5048050;28;20112;-84
2022/09/02 03:56:33;;;;;;;13.90;5.15;;;;;;;13.32;70.70;101569.06;5046996;28;20124;-84
2022/09/02 03:58:59;;;;;;;10.30;5.30;;;;;;;13.34;70.84;101575.09;5039508;28;20144;-86
2022/09/02 04:01:25;;;;;;;15.23;5.82;;;;;;;13.33;71.18;101570.78;5038343;28;20462;-88
2022/09/02 04:03:51;;;;;;;12.85;5.35;;;;;;;13.30;70.76;101563.03;5057263;28;20499;-86
2022/09/02 04:06:19;;;;;;;9.02;5.18;;;;;;;13.31;70.81;101566.47;5046968;28;20096;-87
2022/09/02 04:08:45;;;;;;;8.48;5.20;;;;;;;13.29;71.13;101561.31;5047593;28;20120;-87
2022/09/02 04:11:15;;;;;;;9.32;5.20;;;;;;;13.31;71.45;101564.72;5040946;28;20200;-86
2022/09/02 04:13:40;;;;;;;7.75;4.80;;;;;;;13.31;70.44;101558.66;5046395;28;20431;-87
2022/09/02 04:16:12;;;;;;;8.98;5.10;;;;;;;13.32;71.24;101563.84;5037865;28;20010;-87
2022/09/02 04:18:37;;;;;;;6.63;4.72;;;;;;;13.31;71.10;101562.13;5046010;28;20442;-87
2022/09/02 04:21:03;;;;;;;7.18;4.70;;;;;;;13.32;70.78;101553.44;5040631;28;20115;-87
2022/09/02 04:23:29;;;;;;;6.93;4.70;;;;;;;13.35;71.05;101555.13;5050810;28;20029;-87
2022/09/02 04:25:55;;;;;;;9.57;4.70;;;;;;;13.35;67.86;101555.97;5040119;28;20036;-87
2022/09/02 04:28:21;;;;;;;7.70;5.00;;;;;;;13.39;70.55;101554.13;5042349;28;20631;-87
2022/09/02 04:30:46;;;;;;;7.45;5.20;;;;;;;13.40;71.17;101556.72;5050272;28;20063;-87
2022/09/02 04:33:12;;;;;;;7.27;4.90;;;;;;;13.45;71.80;101554.84;5063044;28;20032;-86
2022/09/02 04:35:42;;;;;;;8.98;4.85;;;;;;;13.49;71.33;101557.38;5050313;28;20735;-86
2022/09/02 04:38:08;;;;;;;7.75;4.93;;;;;;;13.51;70.70;101556.44;5046798;28;20391;-87
2022/09/02 04:40:33;;;;;;;7.65;4.80;;;;;;;13.52;70.88;101559.91;5045539;28;20686;-87
2022/09/02 04:42:59;;;;;;;9.00;5.30;;;;;;;13.56;70.51;101546.78;5044891;28;20116;-86
2022/09/02 04:45:25;;;;;;;11.25;4.97;;;;;;;13.58;71.33;101542.38;5048903;28;20028;-86
2022/09/02 04:47:50;;;;;;;10.55;5.25;;;;;;;13.61;71.18;101544.06;5048849;28;20036;-87
2022/09/02 04:50:15;;;;;;;13.60;5.93;;;;;;;13.62;70.22;101543.16;5045283;28;20061;-87
2022/09/02 04:52:41;;;;;;;9.88;5.65;;;;;;;13.67;70.90;101552.56;5042128;28;20029;-87
2022/09/02 04:55:06;;;;;;;8.90;5.75;;;;;;;13.68;70.68;101553.44;5038918;28;20524;-86
2022/09/02 04:57:32;;;;;;;12.05;5.80;;;;;;;13.69;70.41;101555.16;5045163;28;20025;-87
2022/09/02 04:59:58;;;;;;;11.45;6.00;;;;;;;13.70;69.22;101547.31;5049303;28;20031;-86
2022/09/02 05:02:24;;;;;;;7.53;5.43;;;;;;;13.73;69.54;101542.00;5045206;28;20024;-86
2022/09/02 05:04:50;;;;;;;16.08;6.13;;;;;;;13.76;70.57;101551.50;5049831;28;20440;-86
2022/09/02 05:07:16;;;;;;;9.43;5.63;;;;;;;13.80;70.59;101553.97;5037154;28;20418;-87
2022/09/02 05:09:41;;;;;;;16.13;5.80;;;;;;;13.81;69.28;101549.63;5044794;28;20528;-86
2022/09/02 05:12:06;;;;;;;20.70;6.30;;;;;;;13.82;70.41;101548.72;5056509;28;20393;-86
2022/09/02 05:14:32;;;;;;;9.13;5.45;;;;;;;13.88;67.78;101552.91;5044367;28;20312;-87
2022/09/02 05:16:59;;;;;;;10.57;5.57;;;;;;;13.94;69.28;101558.84;5043610;28;20406;-87
2022/09/02 05:19:24;;;;;;;14.93;5.75;;;;;;;13.98;71.21;101554.41;5044661;28;20048;-87
2022/09/02 05:21:54;;;;;;;11.35;5.47;;;;;;;14.01;69.91;101551.69;5044139;28;20129;-87
2022/09/02 05:24:20;;;;;;;12.68;5.30;;;;;;;14.07;69.45;101562.81;5051579;28;20560;-87
2022/09/02 05:26:45;;;;;;;9.65;5.70;;;;;;;14.10;70.17;101552.31;5036009;28;20021;-86
2022/09/02 05:29:12;;;;;;;8.57;5.85;;;;;;;14.15;71.15;101547.84;5036232;28;20091;-86
2022/09/02 05:31:39;;;;;;;8.57;5.65;;;;;;;14.22;71.51;101556.34;5040236;28;20028;-86
2022/09/02 05:34:04;;;;;;;9.27;5.60;;;;;;;14.27;69.43;101549.25;5057782;28;20082;-86
2022/09/02 05:36:31;;;;;;;11.60;5.43;;;;;;;14.32;70.75;101549.13;5058904;28;20096;-86
2022/09/02 05:38:58;;;;;;;8.82;5.43;;;;;;;14.35;71.06;101556.84;5046013;28;20036;-86
2022/09/02 05:41:23;;;;;;;9.93;5.53;;;;;;;14.39;67.98;101554.19;5042801;28;20115;-86
2022/09/02 05:43:51;;;;;;;9.20;5.70;;;;;;;14.43;70.35;101550.56;5042465;28;20549;-86
2022/09/02 05:46:19;;;;;;;9.05;5.28;;;;;;;14.46;67.58;101554.84;5042813;28;20036;-86
2022/09/02 05:49:04;;;;;;;8.98;5.47;;;;;;;14.53;70.43;101561.63;5010531;28;1049344;-87
2022/09/02 05:51:38;;;;;;;9.95;5.72;;;;;;;14.58;69.50;101559.72;5048373;28;20033;-87
2022/09/02 05:54:03;;;;;;;10.65;5.72;;;;;;;14.60;70.04;101558.75;5050677;28;20052;-87
2022/09/02 05:56:29;;;;;;;10.65;5.60;;;;;;;14.63;70.35;101550.84;5048441;28;20123;-87
2022/09/02 05:58:57;;;;;;;8.60;5.07;;;;;;;14.63;68.76;101548.25;5040254;28;20093;-88
2022/09/02 06:01:23;;;;;;;7.25;5.05;;;;;;;14.71;68.91;101552.38;5042798;28;20036;-87
2022/09/02 06:03:49;;;;;;;11.02;5.45;;;;;;;14.74;69.68;101553.13;5038212;28;20032;-87
2022/09/02 06:06:14;;;;;;;8.98;4.97;;;;;;;14.81;68.06;101553.81;5042850;28;20071;-87
2022/09/02 06:08:40;;;;;;;8.40;5.10;;;;;;;14.87;70.44;101551.91;5050305;28;20056;-87
2022/09/02 06:11:09;;;;;;;10.73;5.10;;;;;;;14.91;68.08;101550.03;5044281;28;20149;-87
2022/09/02 06:13:36;;;;;;;9.25;5.25;;;;;;;14.94;70.34;101548.16;5048006;28;20035;-87
2022/09/02 06:16:02;;;;;;;8.77;4.90;;;;;;;15.01;70.30;101554.09;5041190;28;20080;-87
2022/09/02 06:18:28;;;;;;;9.73;5.13;;;;;;;15.07;69.41;101551.28;5046289;28;20129;-87
2022/09/02 06:20:53;;;;;;;11.93;4.93;;;;;;;15.11;69.59;101552.03;5048759;28;20025;-87
2022/09/02 06:23:19;;;;;;;10.57;4.80;;;;;;;15.16;70.75;101542.28;5036609;28;20037;-87
2022/09/02 06:25:46;;;;;;;10.20;4.80;;;;;;;15.21;68.71;101561.31;5048774;28;20035;-87
2022/09/02 06:28:13;;;;;;;9.18;5.30;;;;;;;15.27;69.68;101556.75;5043878;28;20032;-87
2022/09/02 06:30:41;;;;;;;13.93;5.18;;;;;;;15.30;67.73;101556.63;5042132;28;20033;-87
2022/09/02 06:33:07;;;;;;;8.07;4.47;;;;;;;15.35;66.33;101551.28;5033440;28;20634;-87
2022/09/02 06:35:36;;;;;;;10.50;4.82;;;;;;;15.43;68.88;101551.84;5047395;28;20025;-87
2022/09/02 06:38:02;;;;;;;11.68;4.70;;;;;;;15.48;68.54;101546.50;5046229;28;20158;-87
2022/09/02 06:40:28;;;;;;;7.97;4.75;;;;;;;15.52;69.33;101541.13;5048348;28;20020;-84
2022/09/02 06:42:53;;;;;;;10.67;4.50;;;;;;;15.59;67.91;101547.03;5061424;28;20044;-84
2022/09/02 06:45:19;;;;;;;16.02;4.95;;;;;;;15.63;67.63;101541.63;5056314;28;20363;-84
2022/09/02 06:47:44;;;;;;;9.95;4.93;;;;;;;15.72;68.11;101543.09;5048581;28;20040;-84
2022/09/02 06:50:10;;;;;;;7.40;4.37;;;;;;;15.78;66.98;101535.03;5037461;28;20040;-85
2022/09/02 06:52:35;;;;;;;7.68;4.63;;;;;;;15.87;68.55;101539.13;5041156;28;20382;-85
2022/09/02 06:55:01;;;;;;;10.05;4.70;;;;;;;15.90;65.26;101533.78;5053709;28;20103;-84
2022/09/02 06:57:26;;;;;;;8.98;4.75;;;;;;;15.97;66.15;101543.09;5053290;28;20036;-85
2022/09/02 06:59:52;;;;;;;10.75;5.13;;;;;;;16.00;66.71;101533.41;5047054;28;20112;-84
2022/09/02 07:02:17;;;;;;;9.60;4.80;;;;;;;16.09;67.25;101533.09;5048312;28;20048;-85
2022/09/02 07:07:26;;;;;;;12.55;4.93;;;;;;;16.30;67.65;101531.47;5049094;28;20043;-84
2022/09/02 07:09:52;;;;;;;13.50;5.28;;;;;;;16.37;66.97;101529.47;5049151;28;20028;-87
2022/09/02 07:12:18;;;;;;;14.57;5.10;;;;;;;16.46;65.85;101521.25;5042880;28;20423;-87
2022/09/02 07:14:44;;;;;;;11.35;4.45;;;;;;;16.57;65.59;101530.44;5048922;28;20115;-87
2022/09/02 07:17:16;;;;;;;9.70;5.10;;;;;;;16.65;66.29;101524.09;5057279;28;20308;-87
2022/09/02 07:19:42;;;;;;;18.52;5.72;;;;;;;16.71;65.42;101518.63;5049277;28;20500;-87
2022/09/02 07:22:08;;;;;;;13.02;4.72;;;;;;;16.79;67.98;101524.41;5049153;28;20021;-87
2022/09/02 07:24:34;;;;;;;7.97;4.70;;;;;;;16.86;63.99;101521.50;5047681;28;20031;-87
2022/09/02 07:26:59;;;;;;;9.15;4.90;;;;;;;16.91;64.78;101523.94;5057764;28;20458;-87
2022/09/02 07:29:24;;;;;;;22.25;5.78;;;;;;;16.98;64.76;101521.03;5050941;28;20021;-87
2022/09/02 07:31:50;;;;;;;13.93;5.32;;;;;;;17.07;63.16;101525.03;5049312;28;20056;-87
2022/09/02 07:34:16;;;;;;;12.00;5.43;;;;;;;17.18;63.21;101522.84;5048811;28;20028;-87
2022/09/02 07:36:44;;;;;;;12.63;5.53;;;;;;;17.23;64.57;101520.03;5054367;28;20508;-87
2022/09/02 07:39:11;;;;;;;11.32;5.63;;;;;;;17.30;64.10;101521.50;5050811;28;20082;-88
2022/09/02 07:41:38;;;;;;;9.50;5.20;;;;;;;17.38;63.34;101515.03;5049271;28;20474;-87
2022/09/02 07:44:05;;;;;;;13.38;5.60;;;;;;;17.47;62.27;101516.41;5048610;28;20390;-88
2022/09/02 07:46:31;;;;;;;10.38;5.80;;;;;;;17.55;62.69;101518.72;5052561;28;20043;-87
2022/09/02 07:48:58;;;;;;;13.15;5.38;;;;;;;17.62;62.91;101517.56;5049581;28;20796;-87
2022/09/02 07:51:24;;;;;;;11.82;5.40;;;;;;;17.67;61.43;101513.00;5047595;28;20113;-87
2022/09/02 07:53:50;;;;;;;12.50;5.38;;;;;;;17.83;62.59;101519.28;5049054;28;20064;-87
2022/09/02 07:56:16;;;;;;;11.15;5.43;;;;;;;17.86;60.72;101521.78;5051512;28;20030;-87
2022/09/02 07:58:43;;;;;;;10.00;6.20;;;;;;;17.97;60.37;101519.53;5053950;28;20029;-87
2022/09/02 08:01:09;;;;;;;8.55;5.28;;;;;;;18.03;61.02;101514.03;5047159;28;20534;-87
2022/09/02 08:03:37;;;;;;;10.45;5.80;;;;;;;18.11;60.61;101527.66;5048751;28;20528;-88
2022/09/02 08:06:03;;;;;;;14.55;5.93;;;;;;;18.17;59.82;101518.66;5048987;28;20394;-87
2022/09/02 08:08:28;;;;;;;11.07;5.57;;;;;;;18.22;61.01;101518.47;5054631;28;20536;-87
2022/09/02 08:10:54;;;;;;;10.65;5.97;;;;;;;18.32;60.38;101514.50;5056302;28;20033;-88
2022/09/02 08:13:20;;;;;;;10.63;5.80;;;;;;;18.37;61.29;101521.25;5047253;28;20490;-88
2022/09/02 08:15:46;;;;;;;8.93;5.75;;;;;;;18.43;61.91;101518.34;5049094;28;20023;-88
2022/09/02 08:18:11;;;;;;;10.63;5.95;;;;;;;18.53;60.97;101516.16;5048776;28;20029;-87
2022/09/02 08:20:37;;;;;;;9.43;5.63;;;;;;;18.60;59.22;101516.75;5053848;28;20040;-87
2022/09/02 08:23:05;;;;;;;10.18;5.93;;;;;;;18.67;59.82;101510.31;5047448;28;20115;-88
2022/09/02 08:25:35;;;;;;;14.13;5.75;;;;;;;18.81;59.90;101508.75;5048473;28;20032;-87
2022/09/02 08:28:00;;;;;;;12.50;5.55;;;;;;;18.98;58.92;101504.44;5049731;28;20029;-88
2022/09/02 08:30:26;;;;;;;11.15;4.95;;;;;;;19.16;57.71;101501.78;5050263;28;20025;-87
2022/09/02 08:32:52;;;;;;;11.40;5.70;;;;;;;19.33;57.54;101500.94;5055818;28;20033;-88
2022/09/02 08:35:17;;;;;;;11.00;5.47;;;;;;;19.48;58.24;101499.38;5052148;28;20017;-88
2022/09/02 08:37:43;;;;;;;12.30;5.18;;;;;;;19.62;58.73;101497.75;5050823;28;20134;-87
2022/09/02 08:40:16;;;;;;;13.43;5.30;;;;;;;19.75;58.84;101494.50;5055143;28;20028;-88
2022/09/02 08:42:50;;;;;;;8.10;5.40;;;;;;;19.87;58.45;101492.06;5048857;28;20029;-88
2022/09/02 08:45:31;;;;;;;8.23;5.35;;;;;;;20.01;58.11;101486.09;5048883;28;20025;-87
2022/09/02 08:48:07;;;;;;;8.93;5.40;;;;;;;20.12;58.03;101483.75;5045223;28;20116;-88
2022/09/02 08:50:36;;;;;;;11.07;6.00;;;;;;;20.24;56.37;101483.09;5050793;28;20418;-88
2022/09/02 08:53:20;;;;;;;9.00;6.13;;;;;;;20.39;56.31;101481.44;5053009;28;20108;-88
2022/09/02 08:55:54;;;;;;;11.45;5.65;;;;;;;20.52;56.32;101479.00;5051902;28;20103;-87
2022/09/02 08:58:27;;;;;;;10.18;5.93;;;;;;;20.66;56.23;101477.31;5051663;28;20533;-87
2022/09/02 09:01:06;;;;;;;11.18;5.70;;;;;;;20.88;56.73;101484.84;5054222;28;20046;-88
2022/09/02 09:03:54;;;;;;;10.90;5.78;;;;;;;21.12;56.89;101478.19;5052074;28;20417;-88
2022/09/02 09:06:28;;;;;;;12.27;5.90;;;;;;;21.23;54.95;101483.72;5053850;28;20056;-87
2022/09/02 09:09:18;;;;;;;12.65;5.90;;;;;;;21.40;55.60;101485.38;5051870;28;20028;-88
2022/09/02 09:11:56;;;;;;;13.15;5.93;;;;;;;21.52;54.42;101479.38;5050428;28;20044;-88
2022/09/02 09:14:40;;;;;;;12.38;5.97;;;;;;;21.71;54.33;101487.03;5051443;28;20021;-88
2022/09/02 09:17:30;;;;;;;10.90;5.93;;;;;;;21.74;53.99;101478.94;5049923;28;20104;-88
2022/09/02 09:20:01;;;;;;;15.70;6.00;;;;;;;21.83;54.58;101474.91;5050621;28;20401;-88
2022/09/02 09:22:37;;;;;;;18.40;6.28;;;;;;;21.98;53.47;101487.19;5051666;28;20029;-88
2022/09/02 09:25:14;;;;;;;14.95;6.70;;;;;;;22.11;52.48;101479.41;5051305;28;20366;-88
2022/09/02 09:27:40;;;;;;;9.75;5.53;;;;;;;22.24;50.86;101478.53;5051251;28;20243;-88
2022/09/02 09:30:08;;;;;;;9.95;5.70;;;;;;;22.40;51.86;101471.34;5050771;28;20025;-88
2022/09/02 09:32:41;;;;;;;10.82;6.00;;;;;;;22.45;52.19;101473.66;5050891;28;20443;-88
2022/09/02 09:35:10;;;;;;;9.68;5.40;;;;;;;22.56;51.65;101479.16;5049671;28;20045;-88
2022/09/02 09:37:41;;;;;;;11.05;6.20;;;;;;;22.63;49.70;101476.97;5051041;28;20025;-88
2022/09/02 09:40:24;;;;;;;10.82;5.45;;;;;;;22.72;50.79;101471.91;5047828;28;20055;-89
2022/09/02 09:43:01;;;;;;;13.33;6.47;;;;;;;22.80;50.40;101469.66;5057352;28;20263;-88
2022/09/02 09:45:31;;;;;;;14.20;5.72;;;;;;;22.90;51.32;101466.44;5049514;28;20040;-88
2022/09/02 09:48:15;;;;;;;14.07;5.88;;;;;;;22.99;50.58;101464.06;5049136;28;20031;-88
2022/09/02 09:50:42;;;;;;;13.77;6.15;;;;;;;23.03;49.54;101459.38;5044587;28;20140;-88
2022/09/02 09:53:16;;;;;;;16.52;6.88;;;;;;;23.09;48.35;101461.63;5049885;28;20047;-88
2022/09/02 09:56:05;;;;;;;11.90;6.15;;;;;;;23.22;49.83;101463.34;5049703;28;20032;-88
2022/09/02 09:58:33;;;;;;;18.27;6.15;;;;;;;23.32;50.31;101458.31;5050568;28;20021;-89
2022/09/02 10:01:11;;;;;;;14.98;6.53;;;;;;;23.47;48.29;101451.13;5059805;28;20041;-88
2022/09/02 10:03:41;;;;;;;18.38;6.47;;;;;;;23.63;48.23;101443.84;5050531;28;20478;-89
2022/09/02 10:06:19;;;;;;;10.68;6.13;;;;;;;23.78;48.08;101441.97;5050480;28;20031;-88
2022/09/02 10:08:57;;;;;;;11.65;5.90;;;;;;;23.94;49.57;101447.91;5050397;28;20021;-89
2022/09/02 10:11:28;;;;;;;12.75;6.07;;;;;;;24.00;46.82;101448.31;5051511;28;20052;-88
2022/09/02 10:14:11;;;;;;;12.85;6.53;;;;;;;24.09;47.83;101436.19;5050422;28;20032;-88
2022/09/02 10:17:03;;;;;;;12.53;6.40;;;;;;;24.21;46.67;101439.84;5049895;28;20013;-87
2022/09/02 10:19:43;;;;;;;15.73;6.03;;;;;;;24.31;46.42;101430.25;5048933;28;20445;-88
2022/09/02 10:22:27;;;;;;;14.43;5.90;;;;;;;24.28;47.23;101441.94;5058575;28;20101;-88
2022/09/02 10:24:59;;;;;;;15.90;6.20;;;;;;;24.23;46.24;101436.09;5050170;28;20371;-88
2022/09/02 10:27:49;;;;;;;7.88;6.05;;;;;;;24.17;46.88;101428.56;5048956;28;20516;-89
2022/09/02 10:30:23;;;;;;;12.35;5.78;;;;;;;24.17;45.85;101428.56;5053814;28;20432;-88
2022/09/02 10:33:30;;;;;;;12.48;5.82;;;;;;;24.32;45.27;101416.91;5050176;28;20029;-88
2022/09/02 10:36:11;;;;;;;8.43;5.38;;;;;;;24.44;44.16;101422.25;5050041;28;20110;-89
2022/09/02 10:38:41;;;;;;;8.93;4.80;;;;;;;24.54;44.88;101412.69;5048545;28;20413;-89
2022/09/02 10:41:22;;;;;;;11.15;5.05;;;;;;;24.54;44.31;101418.84;5052199;28;20037;-89
2022/09/02 10:44:24;;;;;;;11.23;4.35;;;;;;;24.50;44.22;101411.25;5049566;28;20032;-89
2022/09/02 10:47:02;;;;;;;11.30;4.40;;;;;;;24.50;44.30;101411.25;5055403;28;20413;-89
2022/09/02 10:49:28;;;;;;;12.85;4.38;;;;;;;24.51;42.77;101418.22;5048382;28;20052;-88
2022/09/02 10:51:56;;;;;;;15.27;4.70;;;;;;;24.50;43.58;101419.19;5049182;28;20120;-89
2022/09/02 10:54:42;;;;;;;9.38;4.00;;;;;;;24.54;43.37;101415.34;5049927;28;20044;-89
2022/09/02 10:57:28;;;;;;;9.05;4.60;;;;;;;24.55;43.28;101407.28;5059076;28;20021;-89
2022/09/02 11:00:09;;;;;;;9.70;4.30;;;;;;;24.46;43.79;101407.09;5056785;28;20083;-88
2022/09/02 11:03:16;;;;;;;7.53;4.40;;;;;;;24.50;42.77;101400.63;5049939;28;20021;-89
2022/09/02 11:05:53;;;;;;;6.88;3.95;;;;;;;24.63;41.41;101401.44;5048969;28;20067;-89
2022/09/02 11:08:29;;;;;;;5.72;4.00;;;;;;;24.67;42.23;101395.78;5052399;28;20025;-89
2022/09/02 11:11:05;;;;;;;11.15;4.10;;;;;;;24.75;40.98;101382.81;5049363;28;20029;-90
2022/09/02 11:13:40;;;;;;;12.98;4.25;;;;;;;24.79;41.43;101396.66;5036274;28;20025;-89
2022/09/02 11:16:32;;;;;;;10.43;4.28;;;;;;;24.91;42.11;101390.47;5050794;28;20027;-88
2022/09/02 11:19:16;;;;;;;11.00;4.10;;;;;;;25.00;40.29;101387.13;5038383;28;20075;-89
2022/09/02 11:21:45;;;;;;;;;;;;;;;25.11;42.10;101381.03;5049885;28;20090;-88
2022/09/02 11:24:15;;;;;;;12.52;4.40;;;;;;;25.15;39.29;101382.47;5049271;28;20288;-89
2022/09/02 11:26:45;;;;;;;8.45;4.22;;;;;;;25.17;38.37;101372.59;5051566;28;20029;-90
2022/09/02 11:29:20;;;;;;;6.85;4.50;;;;;;;25.05;39.72;101377.00;5049073;28;20083;-89
2022/09/02 11:32:00;;;;;;;6.95;4.50;;;;;;;25.02;39.81;101371.97;5049110;28;20529;-89
2022/09/02 11:34:33;;;;;;;7.65;4.20;;;;;;;25.08;39.07;101374.13;5049370;28;20100;-89